createdAt,value
2018-12-12T00:01:02.808Z,102367.72
2018-12-12T00:03:37.005Z,102369.59
2018-12-12T00:08:57.497Z,102373.68
2018-12-12T00:11:25.654Z,102375.87
2018-12-12T00:13:53.891Z,102377.47
2018-12-12T00:16:22.022Z,102381.09
2018-12-12T00:18:50.221Z,102380.62
2018-12-12T00:21:18.352Z,102390.16
2018-12-12T00:23:46.528Z,102387.83
2018-12-12T00:26:14.705Z,102388.42
2018-12-12T00:28:43.031Z,102384.33
2018-12-12T00:31:11.232Z,102386.05
2018-12-12T00:33:39.378Z,102386.05
2018-12-12T00:36:07.609Z,102387.06
2018-12-12T00:38:35.947Z,102391.77
2018-12-12T00:41:04.343Z,102394.69
2018-12-12T00:43:32.488Z,102395.91
2018-12-12T00:46:00.771Z,102401.39
2018-12-12T00:48:28.909Z,102393.52
2018-12-12T00:50:57.205Z,102399.37
2018-12-12T00:53:25.319Z,102406.00
2018-12-12T00:55:53.487Z,102408.98
2018-12-12T00:58:21.695Z,102403.44
2018-12-12T01:00:49.890Z,102405.58
2018-12-12T01:03:18.058Z,102411.91
2018-12-12T01:05:46.349Z,102411.09
2018-12-12T01:08:15.329Z,102417.06
2018-12-12T01:10:43.540Z,102417.83
2018-12-12T01:13:15.485Z,102418.09
2018-12-12T01:15:43.653Z,102424.14
2018-12-12T01:18:11.800Z,102430.40
2018-12-12T01:20:40.032Z,102433.97
2018-12-12T01:23:14.769Z,102439.41
2018-12-12T01:25:43.001Z,102436.84
2018-12-12T01:28:11.802Z,102439.39
2018-12-12T01:30:40.017Z,102447.34
2018-12-12T01:33:08.148Z,102442.08
2018-12-12T01:35:36.313Z,102443.08
2018-12-12T01:38:04.572Z,102444.59
2018-12-12T01:40:32.769Z,102445.56
2018-12-12T01:43:01.045Z,102445.34
2018-12-12T01:45:29.176Z,102437.29
2018-12-12T01:47:57.413Z,102435.39
2018-12-12T01:50:25.569Z,102439.16
2018-12-12T01:52:53.699Z,102435.66
2018-12-12T01:55:21.936Z,102434.63
2018-12-12T01:57:50.072Z,102431.50
2018-12-12T02:00:18.320Z,102438.65
2018-12-12T02:02:46.478Z,102439.45
2018-12-12T02:05:14.633Z,102438.91
2018-12-12T02:07:42.864Z,102437.17
2018-12-12T02:10:11.240Z,102441.42
2018-12-12T02:12:39.484Z,102442.95
2018-12-12T02:15:07.829Z,102445.41
2018-12-12T02:17:36.069Z,102446.92
2018-12-12T02:20:04.504Z,102447.20
2018-12-12T02:22:32.799Z,102448.50
2018-12-12T02:25:00.956Z,102457.34
2018-12-12T02:27:29.159Z,102445.47
2018-12-12T02:29:57.313Z,102450.93
2018-12-12T02:32:25.525Z,102447.79
2018-12-12T02:34:53.681Z,102450.22
2018-12-12T02:37:21.828Z,102457.66
2018-12-12T02:39:50.084Z,102463.24
2018-12-12T02:42:18.253Z,102456.26
2018-12-12T02:44:46.424Z,102457.70
2018-12-12T02:47:14.545Z,102460.24
2018-12-12T02:49:42.720Z,102454.39
2018-12-12T02:52:10.964Z,102455.52
2018-12-12T02:54:39.083Z,102457.23
2018-12-12T02:57:07.405Z,102464.23
2018-12-12T02:59:35.564Z,102477.32
2018-12-12T03:02:03.682Z,102484.56
2018-12-12T03:04:31.881Z,102473.54
2018-12-12T03:07:00.034Z,102480.02
2018-12-12T03:09:28.208Z,102472.87
2018-12-12T03:11:56.508Z,102473.13
2018-12-12T03:14:24.699Z,102478.78
2018-12-12T03:16:52.848Z,102478.30
2018-12-12T03:19:21.009Z,102478.95
2018-12-12T03:21:49.223Z,102482.21
2018-12-12T03:24:17.349Z,102482.59
2018-12-12T03:26:45.541Z,102482.75
2018-12-12T03:29:13.718Z,102482.55
2018-12-12T03:31:41.942Z,102485.94
2018-12-12T03:34:10.176Z,102476.28
2018-12-12T03:36:38.284Z,102484.03
2018-12-12T03:39:07.757Z,102477.58
2018-12-12T03:41:36.074Z,102480.31
2018-12-12T03:44:04.396Z,102484.31
2018-12-12T03:46:32.647Z,102481.61
2018-12-12T03:49:00.991Z,102483.80
2018-12-12T03:51:29.216Z,102485.55
2018-12-12T03:53:57.452Z,102490.62
2018-12-12T03:56:25.701Z,102491.08
2018-12-12T03:58:53.992Z,102487.85
2018-12-12T04:01:22.140Z,102479.67
2018-12-12T04:03:50.437Z,102487.55
2018-12-12T04:06:18.696Z,102474.36
2018-12-12T04:08:46.844Z,102478.73
2018-12-12T04:11:15.016Z,102483.72
2018-12-12T04:13:43.147Z,102484.02
2018-12-12T04:16:11.772Z,102490.14
2018-12-12T04:18:41.353Z,102493.47
2018-12-12T04:21:09.530Z,102495.55
2018-12-12T04:23:37.681Z,102491.81
2018-12-12T04:26:05.905Z,102491.17
2018-12-12T04:28:34.096Z,102487.52
2018-12-12T04:31:02.322Z,102499.00
2018-12-12T04:33:30.562Z,102493.05
2018-12-12T04:35:58.797Z,102508.68
2018-12-12T04:38:26.939Z,102509.88
2018-12-12T04:40:55.268Z,102508.94
2018-12-12T04:43:23.511Z,102513.85
2018-12-12T04:45:51.636Z,102511.80
2018-12-12T04:48:19.757Z,102512.16
2018-12-12T04:50:47.936Z,102509.45
2018-12-12T04:53:16.161Z,102511.91
2018-12-12T04:55:44.295Z,102510.32
2018-12-12T04:58:12.540Z,102515.31
2018-12-12T05:00:40.755Z,102520.23
2018-12-12T05:03:08.989Z,102517.87
2018-12-12T05:05:37.142Z,102516.47
2018-12-12T05:08:05.468Z,102518.66
2018-12-12T05:10:33.805Z,102519.29
2018-12-12T05:13:01.982Z,102526.17
2018-12-12T05:15:30.190Z,102524.73
2018-12-12T05:17:58.377Z,102522.70
2018-12-12T05:20:26.557Z,102527.20
2018-12-12T05:22:55.076Z,102530.73
2018-12-12T05:25:23.311Z,102532.11
2018-12-12T05:27:51.465Z,102540.19
2018-12-12T05:30:19.686Z,102547.20
2018-12-12T05:32:47.934Z,102551.00
2018-12-12T05:35:16.075Z,102545.30
2018-12-12T05:37:49.830Z,102559.36
2018-12-12T05:40:14.709Z,102557.55
2018-12-12T05:42:43.014Z,102562.53
2018-12-12T05:45:11.177Z,102562.62
2018-12-12T05:47:39.474Z,102569.52
2018-12-12T05:50:07.827Z,102567.50
2018-12-12T05:52:36.000Z,102567.60
2018-12-12T05:55:04.350Z,102569.89
2018-12-12T05:57:32.590Z,102565.16
2018-12-12T06:00:00.741Z,102566.48
2018-12-12T06:02:28.931Z,102577.89
2018-12-12T06:04:57.070Z,102571.16
2018-12-12T06:07:25.211Z,102576.96
2018-12-12T06:09:53.380Z,102582.23
2018-12-12T06:12:21.644Z,102580.57
2018-12-12T06:14:49.767Z,102577.26
2018-12-12T06:17:17.902Z,102585.66
2018-12-12T06:19:46.310Z,102586.94
2018-12-12T06:22:14.621Z,102595.84
2018-12-12T06:24:42.971Z,102596.91
2018-12-12T06:27:11.104Z,102598.69
2018-12-12T06:29:39.285Z,102601.80
2018-12-12T06:32:07.437Z,102601.25
2018-12-12T06:34:35.721Z,102607.04
2018-12-12T06:37:04.001Z,102606.16
2018-12-12T06:39:32.141Z,102607.00
2018-12-12T06:42:00.360Z,102612.87
2018-12-12T06:44:28.566Z,102607.46
2018-12-12T06:46:56.756Z,102612.31
2018-12-12T06:49:24.877Z,102614.97
2018-12-12T06:51:53.235Z,102612.73
2018-12-12T06:54:21.407Z,102615.80
2018-12-12T06:56:49.630Z,102614.08
2018-12-12T06:59:17.778Z,102616.12
2018-12-12T07:01:45.927Z,102618.66
2018-12-12T07:04:14.208Z,102617.33
2018-12-12T07:06:42.431Z,102620.64
2018-12-12T07:09:10.555Z,102622.54
2018-12-12T07:11:38.743Z,102630.45
2018-12-12T07:14:06.980Z,102634.81
2018-12-12T07:16:35.147Z,102626.73
2018-12-12T07:19:03.335Z,102630.22
2018-12-12T07:21:31.855Z,102624.83
2018-12-12T07:24:00.008Z,102629.67
2018-12-12T07:26:28.342Z,102632.42
2018-12-12T07:28:56.899Z,102625.62
2018-12-12T07:31:25.319Z,102628.56
2018-12-12T07:33:53.786Z,102633.97
2018-12-12T07:36:22.098Z,102638.35
2018-12-12T07:38:50.269Z,102635.02
2018-12-12T07:41:18.491Z,102641.01
2018-12-12T07:43:46.621Z,102639.93
2018-12-12T07:46:14.867Z,102646.81
2018-12-12T07:48:43.011Z,102652.94
2018-12-12T07:51:11.141Z,102654.86
2018-12-12T07:56:32.066Z,102656.78
2018-12-12T07:59:00.227Z,102663.98
2018-12-12T08:01:28.565Z,102670.91
2018-12-12T08:03:57.252Z,102671.35
2018-12-12T08:06:25.693Z,102666.52
2018-12-12T08:08:53.827Z,102665.60
2018-12-12T08:11:22.043Z,102669.25
2018-12-12T08:13:50.253Z,102678.85
2018-12-12T08:16:18.633Z,102679.36
2018-12-12T08:18:46.916Z,102677.98
2018-12-12T08:21:15.193Z,102678.05
2018-12-12T08:23:43.417Z,102683.66
2018-12-12T08:26:11.685Z,102679.75
2018-12-12T08:28:39.949Z,102680.16
2018-12-12T08:31:08.104Z,102670.59
2018-12-12T08:33:36.249Z,102684.54
2018-12-12T08:36:04.630Z,102687.97
2018-12-12T08:38:32.876Z,102684.00
2018-12-12T08:41:01.131Z,102690.11
2018-12-12T08:43:29.492Z,102687.88
2018-12-12T08:45:57.596Z,102688.73
2018-12-12T08:48:25.753Z,102684.22
2018-12-12T08:50:53.924Z,102691.13
2018-12-12T08:53:22.174Z,102690.28
2018-12-12T08:55:50.332Z,102696.84
2018-12-12T08:58:18.498Z,102698.42
2018-12-12T09:00:46.686Z,102697.37
2018-12-12T09:03:17.581Z,102695.36
2018-12-12T09:05:45.160Z,102699.78
2018-12-12T09:08:13.293Z,102698.48
2018-12-12T09:10:41.448Z,102694.84
2018-12-12T09:13:09.665Z,102695.28
2018-12-12T09:15:37.831Z,102695.36
2018-12-12T09:18:06.181Z,102695.83
2018-12-12T09:20:34.470Z,102708.92
2018-12-12T09:23:02.762Z,102710.27
2018-12-12T09:25:30.952Z,102720.73
2018-12-12T09:27:59.190Z,102718.47
2018-12-12T09:30:27.308Z,102722.86
2018-12-12T09:32:55.518Z,102731.16
2018-12-12T09:35:23.863Z,102720.66
2018-12-12T09:37:55.522Z,102722.80
2018-12-12T09:40:23.917Z,102723.22
2018-12-12T09:42:52.189Z,102730.21
2018-12-12T09:45:21.769Z,102729.36
2018-12-12T09:47:50.225Z,102738.47
2018-12-12T09:50:18.632Z,102722.79
2018-12-12T09:52:46.797Z,102719.80
2018-12-12T09:55:15.036Z,102727.50
2018-12-12T09:57:43.192Z,102734.05
2018-12-12T10:00:11.621Z,102730.16
2018-12-12T10:02:39.786Z,102734.47
2018-12-12T10:05:07.982Z,102734.35
2018-12-12T10:07:37.015Z,102737.84
2018-12-12T10:10:05.453Z,102737.90
2018-12-12T10:12:33.643Z,102739.66
2018-12-12T10:15:01.874Z,102741.41
2018-12-12T10:17:30.159Z,102739.19
2018-12-12T10:19:58.308Z,102739.52
2018-12-12T10:22:26.598Z,102745.64
2018-12-12T10:24:54.732Z,102749.25
2018-12-12T10:27:22.945Z,102750.86
2018-12-12T10:29:51.155Z,102750.27
2018-12-12T10:32:19.420Z,102743.88
2018-12-12T10:34:47.594Z,102746.53
2018-12-12T10:37:15.742Z,102742.03
2018-12-12T10:39:44.002Z,102743.61
2018-12-12T10:42:12.135Z,102745.95
2018-12-12T10:44:40.359Z,102740.25
2018-12-12T10:47:08.665Z,102737.50
2018-12-12T10:49:36.886Z,102739.00
2018-12-12T10:52:05.231Z,102739.02
2018-12-12T10:54:33.477Z,102737.63
2018-12-12T10:57:01.673Z,102746.31
2018-12-12T10:59:29.943Z,102743.77
2018-12-12T11:02:03.603Z,102736.77
2018-12-12T11:04:38.748Z,102741.03
2018-12-12T11:07:06.974Z,102735.81
2018-12-12T11:09:35.105Z,102733.95
2018-12-12T11:12:03.395Z,102731.39
2018-12-12T11:14:31.592Z,102731.92
2018-12-12T11:16:59.761Z,102733.63
2018-12-12T11:19:27.969Z,102731.81
2018-12-12T11:21:56.477Z,102727.85
2018-12-12T11:24:24.627Z,102728.19
2018-12-12T11:26:52.768Z,102726.50
2018-12-12T11:29:20.924Z,102736.57
2018-12-12T11:31:55.486Z,102734.06
2018-12-12T11:34:23.675Z,102738.36
2018-12-12T11:36:51.829Z,102740.03
2018-12-12T11:39:20.021Z,102730.86
2018-12-12T11:41:48.241Z,102737.30
2018-12-12T11:44:16.380Z,102737.34
2018-12-12T11:46:44.653Z,102732.48
2018-12-12T11:49:12.991Z,102733.42
2018-12-12T11:51:41.252Z,102724.77
2018-12-12T11:54:09.504Z,102731.22
2018-12-12T11:56:37.851Z,102729.42
2018-12-12T11:59:06.088Z,102723.46
2018-12-12T12:01:34.357Z,102724.77
2018-12-12T12:04:03.895Z,102733.11
2018-12-12T12:06:32.105Z,102727.45
2018-12-12T12:09:00.335Z,102727.87
2018-12-12T12:11:28.570Z,102728.66
2018-12-12T12:13:56.741Z,102732.22
2018-12-12T12:16:31.252Z,102731.81
2018-12-12T12:19:00.169Z,102732.17
2018-12-12T12:21:28.485Z,102730.38
2018-12-12T12:23:56.685Z,102732.17
2018-12-12T12:26:25.361Z,102734.74
2018-12-12T12:28:54.275Z,102736.52
2018-12-12T12:31:22.773Z,102740.50
2018-12-12T12:33:51.052Z,102738.36
2018-12-12T12:36:19.312Z,102742.30
2018-12-12T12:38:47.496Z,102740.61
2018-12-12T12:41:15.639Z,102743.67
2018-12-12T12:43:43.829Z,102741.94
2018-12-12T12:46:12.078Z,102742.09
2018-12-12T12:48:40.212Z,102744.31
2018-12-12T12:51:08.472Z,102744.66
2018-12-12T12:53:36.759Z,102739.05
2018-12-12T12:56:05.004Z,102732.50
2018-12-12T12:58:33.170Z,102741.72
2018-12-12T13:01:01.428Z,102741.03
2018-12-12T13:03:29.665Z,102739.41
2018-12-12T13:05:57.859Z,102744.30
2018-12-12T13:08:26.095Z,102742.95
2018-12-12T13:10:54.299Z,102736.84
2018-12-12T13:13:22.667Z,102735.12
2018-12-12T13:15:51.387Z,102734.22
2018-12-12T13:18:19.589Z,102733.81
2018-12-12T13:20:47.746Z,102733.35
2018-12-12T13:23:15.839Z,102728.95
2018-12-12T13:25:44.095Z,102732.02
2018-12-12T13:28:12.304Z,102735.56
2018-12-12T13:30:40.474Z,102730.31
2018-12-12T13:33:08.673Z,102729.35
2018-12-12T13:38:26.950Z,102733.38
2018-12-12T13:40:55.299Z,102729.00
2018-12-12T13:43:23.604Z,102738.59
2018-12-12T13:45:51.800Z,102737.36
2018-12-12T13:48:20.241Z,102735.12
2018-12-12T13:50:48.448Z,102734.22
2018-12-12T13:53:16.646Z,102736.84
2018-12-12T13:55:44.893Z,102731.92
2018-12-12T13:58:13.147Z,102739.38
2018-12-12T14:00:41.504Z,102737.64
2018-12-12T14:03:09.738Z,102736.33
2018-12-12T14:05:38.036Z,102739.85
2018-12-12T14:08:06.279Z,102738.96
2018-12-12T14:10:34.608Z,102741.19
2018-12-12T14:13:02.790Z,102737.64
2018-12-12T14:15:31.021Z,102739.83
2018-12-12T14:17:59.184Z,102738.62
2018-12-12T14:20:27.396Z,102736.00
2018-12-12T14:22:55.585Z,102736.05
2018-12-12T14:25:23.724Z,102739.52
2018-12-12T14:27:51.992Z,102737.78
2018-12-12T14:30:20.193Z,102736.42
2018-12-12T14:32:48.352Z,102738.17
2018-12-12T14:35:16.566Z,102733.03
2018-12-12T14:37:44.770Z,102738.63
2018-12-12T14:40:13.010Z,102738.63
2018-12-12T14:42:41.237Z,102738.34
2018-12-12T14:45:09.477Z,102733.50
2018-12-12T14:47:37.680Z,102731.66
2018-12-12T14:50:05.965Z,102726.10
2018-12-12T14:52:34.109Z,102723.94
2018-12-12T14:55:02.254Z,102731.44
2018-12-12T14:57:30.554Z,102737.59
2018-12-12T14:59:58.709Z,102740.27
2018-12-12T15:02:30.151Z,102739.93
2018-12-12T15:04:58.373Z,102739.20
2018-12-12T15:07:26.559Z,102735.30
2018-12-12T15:09:54.757Z,102737.50
2018-12-12T15:12:22.920Z,102740.16
2018-12-12T15:14:51.088Z,102745.49
2018-12-12T15:17:19.306Z,102751.70
2018-12-12T15:19:47.480Z,102753.06
2018-12-12T15:22:15.792Z,102751.33
2018-12-12T15:24:45.023Z,102751.35
2018-12-12T15:27:13.260Z,102753.08
2018-12-12T15:29:41.584Z,102747.05
2018-12-12T15:32:09.749Z,102757.98
2018-12-12T15:34:42.308Z,102751.94
2018-12-12T15:37:08.106Z,102746.72
2018-12-12T15:39:36.289Z,102745.34
2018-12-12T15:42:04.504Z,102750.64
2018-12-12T15:44:32.686Z,102748.44
2018-12-12T15:47:00.908Z,102739.77
2018-12-12T15:49:29.082Z,102746.72
2018-12-12T15:51:57.263Z,102751.05
2018-12-12T15:54:25.477Z,102750.70
2018-12-12T15:56:53.780Z,102757.25
2018-12-12T15:59:21.960Z,102758.98
2018-12-12T16:01:50.168Z,102764.22
2018-12-12T16:04:18.419Z,102756.88
2018-12-12T16:06:46.737Z,102762.09
2018-12-12T16:09:14.915Z,102766.42
2018-12-12T16:11:43.165Z,102772.09
2018-12-12T16:14:13.484Z,102764.70
2018-12-12T16:16:42.034Z,102766.90
2018-12-12T16:19:10.201Z,102765.12
2018-12-12T16:21:38.349Z,102763.83
2018-12-12T16:24:06.481Z,102762.95
2018-12-12T16:26:34.648Z,102758.18
2018-12-12T16:29:02.860Z,102759.92
2018-12-12T16:31:31.083Z,102757.30
2018-12-12T16:33:59.402Z,102759.48
2018-12-12T16:36:27.753Z,102762.53
2018-12-12T16:38:55.904Z,102764.70
2018-12-12T16:41:24.091Z,102767.74
2018-12-12T16:43:52.328Z,102765.14
2018-12-12T16:46:20.643Z,102758.17
2018-12-12T16:48:48.842Z,102760.80
2018-12-12T16:51:17.048Z,102766.89
2018-12-12T16:53:45.180Z,102764.26
2018-12-12T16:56:13.495Z,102762.52
2018-12-12T16:58:41.632Z,102758.16
2018-12-12T17:01:09.786Z,102759.03
2018-12-12T17:03:37.937Z,102759.00
2018-12-12T17:06:06.252Z,102766.03
2018-12-12T17:08:34.405Z,102767.74
2018-12-12T17:11:02.632Z,102768.17
2018-12-12T17:13:30.863Z,102767.70
2018-12-12T17:15:59.175Z,102761.64
2018-12-12T17:18:27.426Z,102760.73
2018-12-12T17:20:55.652Z,102759.90
2018-12-12T17:23:23.802Z,102763.81
2018-12-12T17:25:52.033Z,102763.38
2018-12-12T17:28:20.272Z,102762.93
2018-12-12T17:30:48.475Z,102758.12
2018-12-12T17:33:16.629Z,102762.91
2018-12-12T17:35:44.800Z,102771.19
2018-12-12T17:38:13.032Z,102771.63
2018-12-12T17:40:41.375Z,102767.30
2018-12-12T17:43:09.585Z,102771.61
2018-12-12T17:45:38.316Z,102772.08
2018-12-12T17:48:06.718Z,102771.16
2018-12-12T17:50:35.029Z,102772.93
2018-12-12T17:53:03.330Z,102779.45
2018-12-12T17:55:31.482Z,102762.93
2018-12-12T17:57:59.701Z,102769.42
2018-12-12T18:00:27.920Z,102763.31
2018-12-12T18:02:56.256Z,102768.52
2018-12-12T18:05:24.496Z,102775.11
2018-12-12T18:07:52.685Z,102767.70
2018-12-12T18:10:20.880Z,102767.70
2018-12-12T18:12:49.160Z,102768.16
2018-12-12T18:15:17.338Z,102762.45
2018-12-12T18:17:45.611Z,102762.07
2018-12-12T18:20:13.800Z,102764.65
2018-12-12T18:22:42.209Z,102765.58
2018-12-12T18:25:10.608Z,102765.09
2018-12-12T18:27:38.812Z,102771.64
2018-12-12T18:30:07.912Z,102764.67
2018-12-12T18:32:36.060Z,102766.83
2018-12-12T18:35:10.936Z,102771.62
2018-12-12T18:37:39.228Z,102766.87
2018-12-12T18:40:07.613Z,102773.37
2018-12-12T18:42:35.769Z,102769.02
2018-12-12T18:45:04.166Z,102763.38
2018-12-12T18:47:32.425Z,102765.95
2018-12-12T18:50:00.672Z,102764.23
2018-12-12T18:52:29.593Z,102759.88
2018-12-12T18:54:58.080Z,102765.98
2018-12-12T18:57:26.359Z,102762.02
2018-12-12T18:59:54.755Z,102766.81
2018-12-12T19:02:23.035Z,102773.78
2018-12-12T19:04:51.935Z,102774.22
2018-12-12T19:07:20.308Z,102772.47
2018-12-12T19:09:48.571Z,102765.95
2018-12-12T19:12:16.819Z,102765.92
2018-12-12T19:14:50.354Z,102771.16
2018-12-12T19:17:18.557Z,102764.24
2018-12-12T19:19:46.782Z,102765.09
2018-12-12T19:22:14.974Z,102769.00
2018-12-12T19:24:43.242Z,102771.63
2018-12-12T19:27:13.352Z,102769.44
2018-12-12T19:29:41.557Z,102768.98
2018-12-12T19:32:09.810Z,102771.19
2018-12-12T19:34:37.971Z,102767.70
2018-12-12T19:37:06.281Z,102776.42
2018-12-12T19:39:34.496Z,102775.11
2018-12-12T19:42:02.744Z,102774.26
2018-12-12T19:44:30.953Z,102776.45
2018-12-12T19:46:59.242Z,102775.56
2018-12-12T19:49:27.399Z,102776.91
2018-12-12T19:51:55.733Z,102779.50
2018-12-12T19:54:23.876Z,102784.72
2018-12-12T19:56:52.124Z,102780.81
2018-12-12T19:59:20.469Z,102781.69
2018-12-12T20:01:48.608Z,102785.16
2018-12-12T20:04:16.772Z,102784.30
2018-12-12T20:06:44.912Z,102792.13
2018-12-12T20:09:13.152Z,102789.50
2018-12-12T20:11:41.662Z,102779.95
2018-12-12T20:14:16.165Z,102785.59
2018-12-12T20:16:44.488Z,102780.81
2018-12-12T20:19:12.693Z,102775.17
2018-12-12T20:21:41.086Z,102783.84
2018-12-12T20:24:10.184Z,102782.56
2018-12-12T20:26:38.433Z,102783.44
2018-12-12T20:29:07.415Z,102789.53
2018-12-12T20:31:35.743Z,102783.84
2018-12-12T20:34:04.001Z,102787.33
2018-12-12T20:36:32.285Z,102790.39
2018-12-12T20:39:00.481Z,102785.60
2018-12-12T20:41:28.809Z,102787.33
2018-12-12T20:43:57.030Z,102789.50
2018-12-12T20:46:25.461Z,102789.94
2018-12-12T20:48:53.788Z,102783.85
2018-12-12T20:51:21.962Z,102794.29
2018-12-12T20:53:50.098Z,102796.44
2018-12-12T20:56:18.437Z,102799.07
2018-12-12T20:58:46.673Z,102804.70
2018-12-12T21:01:14.853Z,102802.98
2018-12-12T21:03:43.113Z,102806.02
2018-12-12T21:06:11.341Z,102815.56
2018-12-12T21:08:39.542Z,102813.39
2018-12-12T21:11:07.883Z,102800.80
2018-12-12T21:13:36.149Z,102803.83
2018-12-12T21:16:04.432Z,102802.06
2018-12-12T21:18:32.663Z,102802.52
2018-12-12T21:21:00.915Z,102789.43
2018-12-12T21:23:29.136Z,102797.75
2018-12-12T21:25:57.804Z,102801.20
2018-12-12T21:28:26.042Z,102808.97
2018-12-12T21:30:54.186Z,102807.64
2018-12-12T21:33:22.388Z,102805.03
2018-12-12T21:35:50.527Z,102807.61
2018-12-12T21:38:18.741Z,102810.17
2018-12-12T21:40:47.737Z,102801.48
2018-12-12T21:43:16.020Z,102798.38
2018-12-12T21:45:44.273Z,102793.66
2018-12-12T21:48:12.428Z,102798.84
2018-12-12T21:50:40.728Z,102798.41
2018-12-12T21:53:08.989Z,102790.59
2018-12-12T21:55:37.341Z,102792.73
2018-12-12T21:58:05.533Z,102796.59
2018-12-12T22:00:34.574Z,102800.94
2018-12-12T22:03:02.921Z,102802.72
2018-12-12T22:05:31.068Z,102799.31
2018-12-12T22:07:59.262Z,102798.48
2018-12-12T22:10:27.497Z,102803.72
2018-12-12T22:12:55.672Z,102800.30
2018-12-12T22:15:23.872Z,102810.70
2018-12-12T22:17:52.167Z,102812.01
2018-12-12T22:20:20.428Z,102806.41
2018-12-12T22:22:48.595Z,102812.95
2018-12-12T22:25:16.801Z,102810.33
2018-12-12T22:27:44.995Z,102814.69
2018-12-12T22:30:13.261Z,102806.91
2018-12-12T22:32:41.464Z,102809.94
2018-12-12T22:35:09.593Z,102811.70
2018-12-12T22:37:37.835Z,102803.44
2018-12-12T22:40:06.136Z,102811.70
2018-12-12T22:42:34.355Z,102801.70
2018-12-12T22:45:02.525Z,102806.92
2018-12-12T22:47:30.713Z,102802.15
2018-12-12T22:49:58.876Z,102800.83
2018-12-12T22:52:27.065Z,102801.70
2018-12-12T22:54:55.287Z,102802.14
2018-12-12T22:57:23.543Z,102805.19
2018-12-12T22:59:51.691Z,102807.79
2018-12-12T23:02:19.931Z,102805.61
2018-12-12T23:04:48.122Z,102808.68
2018-12-12T23:07:16.456Z,102810.84
2018-12-12T23:09:44.588Z,102806.06
2018-12-12T23:12:12.778Z,102815.64
2018-12-12T23:14:40.968Z,102809.55
2018-12-12T23:17:09.095Z,102808.66
2018-12-12T23:19:37.339Z,102806.92
2018-12-12T23:22:05.625Z,102808.19
2018-12-12T23:24:33.852Z,102809.49
2018-12-12T23:27:02.053Z,102810.77
2018-12-12T23:29:30.266Z,102808.63
2018-12-12T23:31:58.413Z,102801.61
2018-12-12T23:34:26.624Z,102804.65
2018-12-12T23:36:54.818Z,102801.14
2018-12-12T23:39:23.031Z,102802.39
2018-12-12T23:41:51.164Z,102808.53
2018-12-12T23:44:19.333Z,102802.02
2018-12-12T23:46:47.551Z,102794.62
2018-12-12T23:49:15.709Z,102791.19
2018-12-12T23:51:43.947Z,102789.88
2018-12-12T23:54:12.064Z,102789.45
2018-12-12T23:56:40.322Z,102786.84
2018-12-12T23:59:08.516Z,102784.23
